You are not logged in, Click here to log in
ICAO: RJFF Country: 日本福岡縣福岡市博多區
Latitude: 33.5903 Longitude: 130.447
Total Arrivals: 141 Total Departures: 126
Latest Arrival: NU50 (ROAH-RJFF)CHU. CHUHAO Latest Departure: CI117 (RJFF-RCTP)CHU. CHUHAO
Scenery:
METAR : RJFF 231800Z AUTO 14004KT 9999 NCD 26/23 Q1006 NOSIG

福岡空港/板付機場 FUK